Redington Shores, Florida
Current Conditions -  °F | °C
As of 3:53 PM on Friday 28 Nov 2014 (Local Time) from KPIE Reporting Station
Clear Clear  
Wind Chill: 61°   Ceiling: Unl
Heat Index: 61°   Visibility: 10mi
Dew Point: 35°   Wind: 8mph
Humidity: 38%   Direction: 30°NNE
Pressure: 30.25"   Gusts: NA
Location:  27.8164°N, 82.7802°W
Report Text: KPIE 282053Z 03007KT 10SM CLR 16/02 A3025 RMK AO2 SLP243 T01610017 56017
Loading
Personal Weather Stations






























Interactive Weather Map New forecast layout! Learn more

10-Day Weather Forecast

Advertisements
Track Severe Weather on mobile